createdAt,value
2022-11-26T00:01:47.980Z,49.10
2022-11-26T00:05:15.890Z,49.20
2022-11-26T00:08:44.892Z,50.00
2022-11-26T00:12:21.185Z,50.80
2022-11-26T00:15:49.290Z,55.70
2022-11-26T00:19:16.023Z,54.80
2022-11-26T00:22:45.600Z,55.40
2022-11-26T00:26:17.923Z,84.30
2022-11-26T00:29:44.868Z,61.50
2022-11-26T00:33:11.861Z,65.80
2022-11-26T00:36:38.669Z,64.90
2022-11-26T00:40:05.380Z,57.60
2022-11-26T00:43:32.160Z,71.80
2022-11-26T00:46:58.919Z,82.30
2022-11-26T00:50:28.700Z,68.70
2022-11-26T00:53:57.713Z,53.90
2022-11-26T00:57:24.238Z,50.50
2022-11-26T01:00:52.940Z,58.10
2022-11-26T01:04:19.796Z,52.90
2022-11-26T01:07:50.655Z,54.00
2022-11-26T01:11:21.524Z,57.40
2022-11-26T01:14:49.358Z,54.00
2022-11-26T01:18:19.160Z,52.50
2022-11-26T01:21:47.150Z,52.60
2022-11-26T01:25:13.935Z,52.50
2022-11-26T01:28:40.422Z,52.50
2022-11-26T01:32:07.503Z,53.50
2022-11-26T01:35:35.012Z,50.80
2022-11-26T01:39:04.403Z,56.10
2022-11-26T01:42:45.142Z,54.00
2022-11-26T01:46:17.568Z,48.10
2022-11-26T01:49:44.268Z,48.00
2022-11-26T01:53:15.760Z,54.70
2022-11-26T01:56:46.976Z,61.40
2022-11-26T02:00:16.544Z,62.60
2022-11-26T02:03:50.464Z,52.00
2022-11-26T02:07:17.067Z,49.40
2022-11-26T02:10:45.021Z,50.70
2022-11-26T02:14:15.494Z,50.70
2022-11-26T02:17:46.104Z,51.40
2022-11-26T02:21:20.164Z,52.30
2022-11-26T02:24:54.747Z,53.70
2022-11-26T02:28:58.961Z,53.50
2022-11-26T02:32:30.259Z,54.80
2022-11-26T02:36:02.020Z,52.00
2022-11-26T02:39:32.253Z,54.30
2022-11-26T02:42:59.277Z,50.00
2022-11-26T02:46:26.013Z,51.20
2022-11-26T02:49:54.705Z,49.20
2022-11-26T02:53:25.134Z,53.60
2022-11-26T02:56:53.277Z,51.50
2022-11-26T03:00:22.091Z,52.50
2022-11-26T03:03:54.255Z,55.10
2022-11-26T03:07:21.722Z,51.30
2022-11-26T03:10:48.534Z,52.10
2022-11-26T03:14:14.984Z,53.90
2022-11-26T03:17:41.878Z,51.40
2022-11-26T03:21:08.885Z,54.60
2022-11-26T03:24:35.988Z,52.90
2022-11-26T03:28:03.247Z,51.80
2022-11-26T03:31:30.593Z,50.60
2022-11-26T03:34:57.409Z,51.20
2022-11-26T03:38:23.799Z,48.50
2022-11-26T03:41:50.582Z,46.40
2022-11-26T03:45:18.321Z,48.00
2022-11-26T03:48:45.257Z,47.30
2022-11-26T03:52:11.876Z,48.90
2022-11-26T03:55:39.024Z,47.30
2022-11-26T03:59:05.921Z,47.50
2022-11-26T04:02:33.130Z,48.10
2022-11-26T04:06:03.357Z,47.50
2022-11-26T04:09:33.085Z,47.10
2022-11-26T04:13:00.696Z,49.40
2022-11-26T04:16:27.899Z,50.30
2022-11-26T04:19:54.488Z,46.60
2022-11-26T04:23:21.182Z,44.70
2022-11-26T04:26:47.877Z,45.00
2022-11-26T04:30:17.081Z,45.60
2022-11-26T04:33:44.046Z,47.60
2022-11-26T04:37:10.899Z,43.80
2022-11-26T04:40:38.370Z,44.20
2022-11-26T04:44:05.280Z,45.10
2022-11-26T04:47:31.955Z,41.10
2022-11-26T04:50:59.103Z,42.80
2022-11-26T04:54:26.164Z,42.40
2022-11-26T04:57:52.785Z,43.30
2022-11-26T05:01:19.491Z,46.50
2022-11-26T05:04:46.686Z,48.10
2022-11-26T05:08:13.553Z,47.50
2022-11-26T05:11:40.260Z,50.60
2022-11-26T05:15:08.716Z,50.70
2022-11-26T05:18:35.502Z,46.70
2022-11-26T05:22:02.249Z,45.50
2022-11-26T05:25:29.609Z,44.50
2022-11-26T05:28:57.098Z,43.90
2022-11-26T05:32:24.253Z,41.00
2022-11-26T05:35:52.660Z,42.10
2022-11-26T05:39:19.372Z,41.90
2022-11-26T05:42:45.822Z,40.00
2022-11-26T05:46:13.348Z,39.70
2022-11-26T05:49:40.251Z,41.00
2022-11-26T05:53:07.073Z,40.00
2022-11-26T05:56:34.304Z,41.60
2022-11-26T06:00:00.785Z,43.90
2022-11-26T06:03:29.656Z,42.30
2022-11-26T06:06:56.743Z,40.20
2022-11-26T06:10:23.962Z,41.40
2022-11-26T06:13:50.896Z,39.70
2022-11-26T06:17:19.649Z,38.70
2022-11-26T06:20:46.652Z,41.50
2022-11-26T06:24:14.111Z,40.20
2022-11-26T06:27:45.258Z,40.90
2022-11-26T06:31:14.807Z,42.30
2022-11-26T06:34:43.873Z,41.80
2022-11-26T06:38:11.252Z,44.00
2022-11-26T06:41:38.354Z,42.50
2022-11-26T06:45:05.470Z,42.00
2022-11-26T06:48:32.726Z,44.40
2022-11-26T06:51:59.664Z,42.90
2022-11-26T06:55:26.588Z,42.90
2022-11-26T06:58:55.356Z,43.10
2022-11-26T07:02:22.276Z,45.80
2022-11-26T07:05:49.085Z,43.30
2022-11-26T07:09:16.804Z,45.00
2022-11-26T07:12:43.494Z,47.10
2022-11-26T07:16:13.350Z,45.30
2022-11-26T07:19:41.767Z,44.50
2022-11-26T07:23:08.441Z,44.70
2022-11-26T07:26:39.827Z,45.50
2022-11-26T07:30:19.708Z,47.20
2022-11-26T07:33:55.664Z,41.70
2022-11-26T07:40:57.442Z,47.70
2022-11-26T07:47:50.829Z,50.60
2022-11-26T07:51:25.570Z,64.10
2022-11-26T07:54:53.224Z,58.10
2022-11-26T07:58:21.654Z,51.90
2022-11-26T08:01:49.110Z,53.10
2022-11-26T08:05:19.967Z,49.70
2022-11-26T08:08:47.570Z,54.40
2022-11-26T08:12:17.350Z,48.30
2022-11-26T08:15:45.071Z,47.20
2022-11-26T08:19:15.245Z,48.50
2022-11-26T08:22:42.470Z,51.60
2022-11-26T08:26:23.909Z,51.50
2022-11-26T08:29:55.219Z,52.50
2022-11-26T08:33:22.642Z,54.40
2022-11-26T08:36:49.507Z,53.20
2022-11-26T08:40:18.121Z,54.60
2022-11-26T08:44:05.826Z,52.80
2022-11-26T08:47:33.187Z,55.60
2022-11-26T08:51:03.614Z,48.90
2022-11-26T08:54:35.197Z,52.50
2022-11-26T08:58:04.313Z,60.10
2022-11-26T09:01:33.582Z,59.30
2022-11-26T09:05:01.548Z,61.20
2022-11-26T09:08:28.736Z,59.70
2022-11-26T09:11:59.383Z,59.70
2022-11-26T09:15:26.502Z,54.00
2022-11-26T09:18:56.521Z,54.90
2022-11-26T09:22:25.073Z,52.50
2022-11-26T09:25:54.268Z,55.90
2022-11-26T09:29:22.705Z,57.30
2022-11-26T09:32:49.859Z,53.70
2022-11-26T09:36:18.555Z,53.20
2022-11-26T09:39:45.878Z,55.80
2022-11-26T09:43:24.482Z,54.90
2022-11-26T09:47:15.642Z,53.40
2022-11-26T09:50:43.794Z,57.40
2022-11-26T09:54:18.131Z,55.90
2022-11-26T09:57:52.801Z,57.30
2022-11-26T10:01:24.599Z,61.10
2022-11-26T10:04:54.634Z,53.00
2022-11-26T10:08:46.226Z,57.90
2022-11-26T10:12:26.479Z,52.10
2022-11-26T10:16:06.773Z,53.70
2022-11-26T10:19:44.023Z,51.50
2022-11-26T10:23:24.108Z,52.20
2022-11-26T10:26:51.667Z,49.20
2022-11-26T10:30:24.910Z,50.00
2022-11-26T10:37:23.431Z,48.40
2022-11-26T10:40:50.411Z,53.20
2022-11-26T10:44:40.568Z,51.60
2022-11-26T10:48:23.850Z,47.50
2022-11-26T10:52:01.049Z,45.90
2022-11-26T10:55:31.383Z,46.70
2022-11-26T10:59:02.926Z,47.70
2022-11-26T11:02:37.433Z,47.20
2022-11-26T11:06:36.402Z,46.30
2022-11-26T11:10:20.637Z,44.30
2022-11-26T11:13:48.486Z,43.90
2022-11-26T11:17:36.263Z,41.10
2022-11-26T11:21:04.726Z,45.50
2022-11-26T11:24:32.895Z,45.20
2022-11-26T11:28:10.480Z,41.90
2022-11-26T11:31:48.408Z,45.70
2022-11-26T11:35:31.352Z,44.50
2022-11-26T11:39:00.186Z,44.90
2022-11-26T11:42:29.942Z,43.90
2022-11-26T11:46:10.927Z,45.90
2022-11-26T11:50:00.607Z,43.50
2022-11-26T11:53:38.035Z,41.70
2022-11-26T11:57:15.102Z,43.50
2022-11-26T12:00:48.765Z,41.40
2022-11-26T12:04:39.568Z,42.70
2022-11-26T12:08:19.121Z,43.60
2022-11-26T12:11:55.984Z,42.70
2022-11-26T12:15:29.902Z,39.10
2022-11-26T12:19:05.452Z,40.90
2022-11-26T12:22:38.512Z,41.00
2022-11-26T12:26:14.859Z,42.20
2022-11-26T12:29:48.722Z,46.30
2022-11-26T12:33:21.001Z,43.60
2022-11-26T12:36:54.125Z,43.80
2022-11-26T12:40:34.679Z,43.40
2022-11-26T12:44:16.210Z,41.30
2022-11-26T12:47:51.331Z,41.90
2022-11-26T12:51:24.847Z,38.00
2022-11-26T12:58:25.450Z,38.90
2022-11-26T13:01:55.370Z,40.20
2022-11-26T13:05:29.507Z,38.30
2022-11-26T13:09:05.816Z,39.80
2022-11-26T13:12:43.003Z,37.50
2022-11-26T13:16:24.002Z,38.60
2022-11-26T13:19:55.346Z,41.60
2022-11-26T13:23:49.794Z,39.70
2022-11-26T13:27:35.764Z,51.40
2022-11-26T13:31:22.666Z,45.80
2022-11-26T13:35:14.526Z,43.00
2022-11-26T13:38:58.515Z,43.80
2022-11-26T13:42:46.104Z,55.80
2022-11-26T13:46:22.364Z,56.00
2022-11-26T13:49:54.589Z,46.20
2022-11-26T13:53:27.283Z,43.50
2022-11-26T13:57:02.794Z,43.20
2022-11-26T14:00:34.098Z,40.50
2022-11-26T14:04:01.140Z,37.20
2022-11-26T14:07:28.898Z,40.90
2022-11-26T14:10:56.604Z,37.50
2022-11-26T14:14:39.453Z,38.80
2022-11-26T14:18:07.132Z,34.40
2022-11-26T14:21:54.678Z,36.60
2022-11-26T14:25:41.327Z,36.90
2022-11-26T14:29:22.128Z,36.60
2022-11-26T14:32:54.854Z,37.70
2022-11-26T14:36:26.560Z,39.10
2022-11-26T14:40:06.451Z,35.80
2022-11-26T14:43:33.472Z,40.30
2022-11-26T14:47:16.761Z,43.00
2022-11-26T14:50:47.899Z,52.10
2022-11-26T14:54:24.052Z,53.30
2022-11-26T14:57:57.530Z,51.90
2022-11-26T15:05:00.684Z,50.60
2022-11-26T15:08:30.303Z,46.50
2022-11-26T15:12:05.163Z,49.00
2022-11-26T15:15:31.927Z,49.80
2022-11-26T15:18:59.450Z,49.00
2022-11-26T15:22:34.384Z,47.90
2022-11-26T15:26:02.055Z,52.10
2022-11-26T15:29:36.638Z,47.70
2022-11-26T15:33:06.394Z,50.20
2022-11-26T15:36:35.401Z,48.30
2022-11-26T15:40:24.888Z,51.50
2022-11-26T15:43:55.475Z,51.60
2022-11-26T15:47:27.202Z,55.60
2022-11-26T15:50:56.447Z,54.90
2022-11-26T15:54:43.538Z,48.50
2022-11-26T15:58:21.581Z,62.70
2022-11-26T16:05:29.096Z,59.50
2022-11-26T16:09:05.480Z,52.80
2022-11-26T16:12:35.344Z,53.40
2022-11-26T16:16:07.990Z,54.10
2022-11-26T16:19:36.008Z,56.50
2022-11-26T16:23:03.266Z,51.50
2022-11-26T16:26:30.996Z,52.00
2022-11-26T16:29:58.004Z,68.00
2022-11-26T16:33:24.846Z,59.90
2022-11-26T16:36:52.671Z,59.80
2022-11-26T16:40:20.713Z,63.60
2022-11-26T16:43:47.968Z,58.30
2022-11-26T16:47:23.909Z,53.10
2022-11-26T16:50:50.929Z,57.00
2022-11-26T16:54:25.246Z,57.80
2022-11-26T16:57:57.117Z,62.80
2022-11-26T17:01:25.100Z,68.60
2022-11-26T17:04:53.775Z,69.80
2022-11-26T17:08:21.415Z,65.40
2022-11-26T17:11:49.442Z,64.80
2022-11-26T17:15:16.718Z,60.10
2022-11-26T17:18:43.797Z,58.70
2022-11-26T17:22:11.791Z,59.20
2022-11-26T17:25:42.095Z,72.30
2022-11-26T17:29:11.664Z,78.10
2022-11-26T17:32:41.427Z,70.10
2022-11-26T17:36:16.777Z,62.80
2022-11-26T17:39:44.524Z,57.20
2022-11-26T17:43:13.519Z,58.50
2022-11-26T17:47:09.107Z,73.80
2022-11-26T17:50:30.204Z,57.70
2022-11-26T17:53:57.004Z,51.80
2022-11-26T17:57:25.732Z,54.50
2022-11-26T18:00:53.321Z,49.20
2022-11-26T18:04:20.859Z,51.30
2022-11-26T18:07:47.764Z,55.50
2022-11-26T18:11:16.236Z,56.80
2022-11-26T18:14:45.211Z,52.40
2022-11-26T18:18:12.065Z,54.30
2022-11-26T18:21:40.039Z,53.80
2022-11-26T18:25:08.119Z,55.70
2022-11-26T18:28:38.179Z,54.50
2022-11-26T18:32:21.644Z,54.20
2022-11-26T18:35:51.918Z,55.50
2022-11-26T18:39:18.831Z,66.20
2022-11-26T18:42:47.047Z,62.20
2022-11-26T18:46:19.815Z,67.60
2022-11-26T18:49:49.843Z,69.20
2022-11-26T18:53:19.389Z,61.10
2022-11-26T18:56:46.446Z,55.70
2022-11-26T19:00:19.697Z,56.90
2022-11-26T19:03:48.384Z,57.60
2022-11-26T19:07:17.291Z,55.80
2022-11-26T19:10:44.248Z,57.90
2022-11-26T19:14:14.307Z,64.40
2022-11-26T19:17:41.252Z,64.90
2022-11-26T19:21:09.180Z,60.50
2022-11-26T19:24:41.058Z,57.60
2022-11-26T19:28:10.156Z,55.00
2022-11-26T19:31:40.267Z,54.30
2022-11-26T19:35:07.991Z,60.60
2022-11-26T19:38:34.894Z,70.30
2022-11-26T19:42:01.513Z,105.80
2022-11-26T19:45:28.754Z,101.50
2022-11-26T19:48:56.864Z,95.40
2022-11-26T19:52:26.194Z,87.80
2022-11-26T19:56:02.677Z,68.30
2022-11-26T19:59:29.207Z,68.00
2022-11-26T20:03:00.657Z,65.30
2022-11-26T20:06:32.351Z,70.70
2022-11-26T20:10:08.010Z,61.90
2022-11-26T20:13:36.553Z,61.20
2022-11-26T20:17:03.348Z,52.20
2022-11-26T20:20:30.094Z,54.80
2022-11-26T20:23:59.136Z,53.60
2022-11-26T20:27:26.251Z,52.40
2022-11-26T20:30:53.332Z,53.00
2022-11-26T20:34:22.448Z,59.90
2022-11-26T20:37:51.556Z,56.50
2022-11-26T20:41:21.270Z,66.50
2022-11-26T20:44:50.269Z,68.70
2022-11-26T20:48:19.071Z,84.70
2022-11-26T20:51:46.295Z,75.50
2022-11-26T20:55:14.098Z,59.30
2022-11-26T20:59:01.228Z,60.10
2022-11-26T21:02:29.385Z,57.00
2022-11-26T21:05:59.977Z,51.90
2022-11-26T21:09:26.694Z,54.70
2022-11-26T21:13:00.449Z,54.40
2022-11-26T21:16:27.737Z,57.60
2022-11-26T21:19:58.359Z,54.20
2022-11-26T21:23:26.811Z,62.50
2022-11-26T21:26:53.452Z,60.20
2022-11-26T21:30:22.860Z,64.10
2022-11-26T21:33:59.343Z,68.40
2022-11-26T21:37:26.715Z,65.70
2022-11-26T21:40:54.619Z,69.00
2022-11-26T21:44:21.340Z,66.30
2022-11-26T21:47:52.559Z,61.20
2022-11-26T21:51:26.045Z,54.90
2022-11-26T21:54:58.429Z,55.70
2022-11-26T21:58:32.697Z,54.70
2022-11-26T22:01:59.969Z,57.10
2022-11-26T22:05:26.602Z,59.00
2022-11-26T22:09:01.940Z,58.20
2022-11-26T22:12:30.135Z,52.70
2022-11-26T22:15:56.995Z,53.90
2022-11-26T22:19:32.468Z,51.60
2022-11-26T22:23:02.129Z,52.90
2022-11-26T22:26:30.116Z,49.90
2022-11-26T22:30:00.491Z,49.30
2022-11-26T22:33:26.942Z,47.50
2022-11-26T22:36:53.434Z,47.30
2022-11-26T22:40:20.087Z,47.10
2022-11-26T22:43:47.189Z,50.10
2022-11-26T22:47:14.192Z,58.70
2022-11-26T22:50:40.936Z,56.80
2022-11-26T22:54:11.664Z,54.90
2022-11-26T22:57:39.797Z,51.60
2022-11-26T23:01:09.344Z,53.20
2022-11-26T23:04:38.823Z,52.20
2022-11-26T23:08:06.412Z,52.30
2022-11-26T23:11:36.316Z,50.00
2022-11-26T23:15:06.420Z,52.50
2022-11-26T23:18:33.237Z,49.10
2022-11-26T23:22:00.009Z,48.50
2022-11-26T23:25:26.763Z,51.40
2022-11-26T23:28:53.399Z,53.70
2022-11-26T23:32:20.638Z,61.00
2022-11-26T23:35:47.390Z,56.50
2022-11-26T23:39:16.443Z,55.70
2022-11-26T23:42:43.972Z,55.10
2022-11-26T23:46:14.518Z,52.60
2022-11-26T23:49:41.294Z,51.60
2022-11-26T23:53:07.983Z,50.10
2022-11-26T23:56:50.316Z,55.70
